createdAt,value
2017-06-13T00:00:40.516Z,15.40
2017-06-13T00:03:08.807Z,15.30
2017-06-13T00:05:37.081Z,15.30
2017-06-13T00:08:06.112Z,15.10
2017-06-13T00:10:34.420Z,15.00
2017-06-13T00:13:03.468Z,15.00
2017-06-13T00:15:31.740Z,14.90
2017-06-13T00:18:00.926Z,14.90
2017-06-13T00:20:29.189Z,14.90
2017-06-13T00:22:57.460Z,14.80
2017-06-13T00:25:25.788Z,14.80
2017-06-13T00:27:54.060Z,14.90
2017-06-13T00:30:22.324Z,14.80
2017-06-13T00:32:50.620Z,14.70
2017-06-13T00:35:19.653Z,14.60
2017-06-13T00:37:47.916Z,14.60
2017-06-13T00:40:16.216Z,14.50
2017-06-13T00:42:45.269Z,14.50
2017-06-13T00:45:13.531Z,14.50
2017-06-13T00:47:42.124Z,14.50
2017-06-13T00:50:11.156Z,14.40
2017-06-13T00:52:39.428Z,14.30
2017-06-13T00:55:07.928Z,14.40
2017-06-13T00:57:36.960Z,14.10
2017-06-13T01:00:05.232Z,14.10
2017-06-13T01:02:33.533Z,14.00
2017-06-13T01:05:02.564Z,14.00
2017-06-13T01:07:30.828Z,13.90
2017-06-13T01:09:59.136Z,14.00
2017-06-13T01:12:28.174Z,13.90
2017-06-13T01:14:56.451Z,13.90
2017-06-13T01:17:24.956Z,13.90
2017-06-13T01:19:53.236Z,14.00
2017-06-13T01:22:21.504Z,13.90
2017-06-13T01:24:49.820Z,13.90
2017-06-13T01:27:18.098Z,13.90
2017-06-13T01:29:47.128Z,13.70
2017-06-13T01:32:15.444Z,13.70
2017-06-13T01:34:43.712Z,13.70
2017-06-13T01:37:11.985Z,13.60
2017-06-13T01:39:40.288Z,13.60
2017-06-13T01:42:08.564Z,13.60
2017-06-13T01:44:36.827Z,13.60
2017-06-13T01:47:05.298Z,13.60
2017-06-13T01:49:34.347Z,13.50
2017-06-13T01:52:02.632Z,13.40
2017-06-13T01:54:30.947Z,13.50
2017-06-13T01:56:59.216Z,13.40
2017-06-13T01:59:27.484Z,13.30
2017-06-13T02:01:55.980Z,13.30
2017-06-13T02:04:24.252Z,13.30
2017-06-13T02:06:53.298Z,13.20
2017-06-13T02:09:21.604Z,13.20
2017-06-13T02:11:50.640Z,13.20
2017-06-13T02:14:18.903Z,13.20
2017-06-13T02:16:47.208Z,13.20
2017-06-13T02:19:16.250Z,13.00
2017-06-13T02:21:44.520Z,13.00
2017-06-13T02:24:12.838Z,12.90
2017-06-13T02:26:41.112Z,12.80
2017-06-13T02:29:09.388Z,12.80
2017-06-13T02:31:37.696Z,12.80
2017-06-13T02:34:05.972Z,12.80
2017-06-13T02:36:34.379Z,12.70
2017-06-13T02:39:02.749Z,12.70
2017-06-13T02:41:31.029Z,12.80
2017-06-13T02:44:00.061Z,12.80
2017-06-13T02:46:28.468Z,12.70
2017-06-13T02:48:56.748Z,12.70
2017-06-13T02:51:25.809Z,12.60
2017-06-13T02:53:54.873Z,12.60
2017-06-13T02:56:23.150Z,12.50
2017-06-13T02:58:51.408Z,12.50
2017-06-13T03:01:19.715Z,12.40
2017-06-13T03:03:47.984Z,12.40
2017-06-13T03:06:16.255Z,12.30
2017-06-13T03:08:44.564Z,12.30
2017-06-13T03:11:13.603Z,12.30
2017-06-13T03:13:41.881Z,12.20
2017-06-13T03:16:10.183Z,12.20
2017-06-13T03:18:38.456Z,12.20
2017-06-13T03:21:06.732Z,12.10
2017-06-13T03:23:35.028Z,12.10
2017-06-13T03:26:03.300Z,12.10
2017-06-13T03:28:31.568Z,11.90
2017-06-13T03:31:00.649Z,12.00
2017-06-13T03:33:28.911Z,12.00
2017-06-13T03:35:57.952Z,12.00
2017-06-13T03:38:26.372Z,12.00
2017-06-13T03:40:54.640Z,11.90
2017-06-13T03:43:22.916Z,11.90
2017-06-13T03:45:51.232Z,11.90
2017-06-13T03:48:19.504Z,11.90
2017-06-13T03:50:48.544Z,12.10
2017-06-13T03:53:16.844Z,12.00
2017-06-13T03:55:45.880Z,12.00
2017-06-13T03:58:14.144Z,12.00
2017-06-13T04:00:42.528Z,12.00
2017-06-13T04:03:10.796Z,12.10
2017-06-13T04:05:39.065Z,12.10
2017-06-13T04:08:08.136Z,12.20
2017-06-13T04:10:37.187Z,12.30
2017-06-13T04:13:05.461Z,12.20
2017-06-13T04:15:33.784Z,12.50
2017-06-13T04:18:02.053Z,12.60
2017-06-13T04:20:30.320Z,12.50
2017-06-13T04:22:58.632Z,12.60
2017-06-13T04:25:26.903Z,12.60
2017-06-13T04:27:55.941Z,13.00
2017-06-13T04:30:24.269Z,13.00
2017-06-13T04:32:52.559Z,13.10
2017-06-13T04:35:20.829Z,13.20
2017-06-13T04:37:49.140Z,13.20
2017-06-13T04:40:17.428Z,13.30
2017-06-13T04:42:45.684Z,13.40
2017-06-13T04:45:13.985Z,13.50
2017-06-13T04:47:42.247Z,13.70
2017-06-13T04:50:10.512Z,13.90
2017-06-13T04:52:38.900Z,14.00
2017-06-13T04:55:07.932Z,14.30
2017-06-13T04:57:36.199Z,14.20
2017-06-13T05:00:04.512Z,14.30
2017-06-13T05:02:32.787Z,14.50
2017-06-13T05:05:01.064Z,14.80
2017-06-13T05:07:29.477Z,14.80
2017-06-13T05:09:58.512Z,15.00
2017-06-13T05:12:26.776Z,14.90
2017-06-13T05:14:55.083Z,15.20
2017-06-13T05:17:24.111Z,15.30
2017-06-13T05:19:52.376Z,15.30
2017-06-13T05:22:20.836Z,15.30
2017-06-13T05:24:49.104Z,15.30
2017-06-13T05:27:17.376Z,15.40
2017-06-13T05:29:45.676Z,15.30
2017-06-13T05:32:14.708Z,15.40
2017-06-13T05:34:42.992Z,15.30
2017-06-13T05:37:11.468Z,15.40
2017-06-13T05:39:39.736Z,15.50
2017-06-13T05:42:08.768Z,15.50
2017-06-13T05:44:37.068Z,15.50
2017-06-13T05:47:05.332Z,15.60
2017-06-13T05:49:34.364Z,15.70
2017-06-13T05:52:02.680Z,15.70
2017-06-13T05:54:31.719Z,15.80
2017-06-13T05:56:59.992Z,15.80
2017-06-13T05:59:28.304Z,16.00
2017-06-13T06:01:56.597Z,16.00
2017-06-13T06:04:26.334Z,16.10
2017-06-13T06:06:54.648Z,16.20
2017-06-13T06:09:23.499Z,16.10
2017-06-13T06:11:51.776Z,16.10
2017-06-13T06:14:20.091Z,16.10
2017-06-13T06:16:48.357Z,16.30
2017-06-13T06:19:17.388Z,16.60
2017-06-13T06:21:45.695Z,16.50
2017-06-13T06:24:14.731Z,16.80
2017-06-13T06:26:43.000Z,16.70
2017-06-13T06:29:11.296Z,16.80
2017-06-13T06:31:40.328Z,17.00
2017-06-13T06:34:08.596Z,17.00
2017-06-13T06:36:37.100Z,17.20
2017-06-13T06:39:05.368Z,17.40
2017-06-13T06:41:34.408Z,17.80
2017-06-13T06:44:02.709Z,17.70
2017-06-13T06:46:44.515Z,17.90
2017-06-13T06:49:12.820Z,17.80
2017-06-13T06:51:41.084Z,18.10
2017-06-13T06:54:09.347Z,18.00
2017-06-13T06:56:37.655Z,18.00
2017-06-13T06:59:06.867Z,18.20
2017-06-13T07:01:35.137Z,18.20
2017-06-13T07:04:03.428Z,18.40
2017-06-13T07:06:31.697Z,18.50
2017-06-13T07:09:00.776Z,18.30
2017-06-13T07:11:29.857Z,18.10
2017-06-13T07:13:58.888Z,18.10
2017-06-13T07:16:27.153Z,18.00
2017-06-13T07:18:55.660Z,18.10
2017-06-13T07:21:24.692Z,18.30
2017-06-13T07:23:52.956Z,18.30
2017-06-13T07:26:21.280Z,18.40
2017-06-13T07:28:49.560Z,18.40
2017-06-13T07:31:17.834Z,18.40
2017-06-13T07:33:46.131Z,18.30
2017-06-13T07:36:18.132Z,18.40
2017-06-13T07:38:46.424Z,18.50
2017-06-13T07:41:14.709Z,18.60
2017-06-13T07:43:42.984Z,18.70
2017-06-13T07:46:12.073Z,18.70
2017-06-13T07:48:41.100Z,18.70
2017-06-13T07:51:09.368Z,18.70
2017-06-13T07:53:37.784Z,18.70
2017-06-13T07:56:06.060Z,18.60
2017-06-13T07:58:34.324Z,18.70
2017-06-13T08:01:02.644Z,18.80
2017-06-13T08:03:31.683Z,18.80
2017-06-13T08:05:59.950Z,18.70
2017-06-13T08:08:28.448Z,19.00
2017-06-13T08:10:56.712Z,19.20
2017-06-13T08:13:24.982Z,19.10
2017-06-13T08:15:54.065Z,19.10
2017-06-13T08:18:22.333Z,19.10
2017-06-13T08:20:51.364Z,19.10
2017-06-13T08:23:23.132Z,19.00
2017-06-13T08:25:51.396Z,19.20
2017-06-13T08:28:19.664Z,19.10
2017-06-13T08:30:48.749Z,19.40
2017-06-13T08:33:17.012Z,19.40
2017-06-13T08:35:46.045Z,19.80
2017-06-13T08:38:14.344Z,19.70
2017-06-13T08:40:46.380Z,19.70
2017-06-13T08:43:14.660Z,19.80
2017-06-13T08:45:43.739Z,20.00
2017-06-13T08:48:12.776Z,19.70
2017-06-13T08:50:41.088Z,19.60
2017-06-13T08:53:10.120Z,19.50
2017-06-13T08:55:38.395Z,19.50
2017-06-13T08:58:06.688Z,19.70
2017-06-13T09:00:35.724Z,19.60
2017-06-13T09:03:03.987Z,19.50
2017-06-13T09:05:32.304Z,19.40
2017-06-13T09:08:03.776Z,19.50
2017-06-13T09:10:32.056Z,19.70
2017-06-13T09:13:00.440Z,19.70
2017-06-13T09:15:29.476Z,20.10
2017-06-13T09:17:57.795Z,20.00
2017-06-13T09:20:26.856Z,20.60
2017-06-13T09:22:55.126Z,20.60
2017-06-13T09:25:24.194Z,20.60
2017-06-13T09:27:53.272Z,20.50
2017-06-13T09:30:26.348Z,20.40
2017-06-13T09:32:54.616Z,20.30
2017-06-13T09:35:23.656Z,20.40
2017-06-13T09:37:52.087Z,20.30
2017-06-13T09:40:21.124Z,20.30
2017-06-13T09:42:49.395Z,20.30
2017-06-13T09:45:17.691Z,20.50
2017-06-13T09:47:45.968Z,20.30
2017-06-13T09:50:14.242Z,20.50
2017-06-13T09:52:42.593Z,20.50
2017-06-13T09:55:10.857Z,20.30
2017-06-13T09:57:39.120Z,20.50
2017-06-13T10:00:07.511Z,20.90
2017-06-13T10:02:35.776Z,21.20
2017-06-13T10:05:05.540Z,21.20
2017-06-13T10:07:33.892Z,21.10
2017-06-13T10:10:02.163Z,21.20
2017-06-13T10:12:30.424Z,21.20
2017-06-13T10:14:58.844Z,21.30
2017-06-13T10:17:27.112Z,21.20
2017-06-13T10:19:56.166Z,21.40
2017-06-13T10:22:24.480Z,21.40
2017-06-13T10:24:52.752Z,21.70
2017-06-13T10:27:21.019Z,21.50
2017-06-13T10:29:49.343Z,20.70
2017-06-13T10:32:17.610Z,20.90
2017-06-13T10:34:45.881Z,21.30
2017-06-13T10:37:14.177Z,21.70
2017-06-13T10:39:42.448Z,22.00
2017-06-13T10:42:10.719Z,21.80
2017-06-13T10:44:39.188Z,21.60
2017-06-13T10:47:07.460Z,21.70
2017-06-13T10:49:36.487Z,21.80
2017-06-13T10:52:05.003Z,21.70
2017-06-13T10:54:34.033Z,22.50
2017-06-13T10:57:02.377Z,22.40
2017-06-13T10:59:30.688Z,22.50
2017-06-13T11:01:59.004Z,22.40
2017-06-13T11:04:27.276Z,22.50
2017-06-13T11:06:55.604Z,22.60
2017-06-13T11:09:24.312Z,22.60
2017-06-13T11:11:52.856Z,22.50
2017-06-13T11:14:21.159Z,22.80
2017-06-13T11:16:49.428Z,23.00
2017-06-13T11:19:17.737Z,23.30
2017-06-13T11:21:46.093Z,23.00
2017-06-13T11:24:15.140Z,22.90
2017-06-13T11:26:43.451Z,22.80
2017-06-13T11:29:11.748Z,22.80
2017-06-13T11:31:40.012Z,22.50
2017-06-13T11:34:08.306Z,22.20
2017-06-13T11:36:37.368Z,22.50
2017-06-13T11:39:05.640Z,22.40
2017-06-13T11:41:34.671Z,23.20
2017-06-13T11:44:03.201Z,23.10
2017-06-13T11:46:32.253Z,23.10
2017-06-13T11:49:00.524Z,23.10
2017-06-13T11:51:29.592Z,23.40
2017-06-13T11:53:57.870Z,23.40
2017-06-13T11:56:26.153Z,23.80
2017-06-13T11:58:54.464Z,23.80
2017-06-13T12:01:22.736Z,23.60
2017-06-13T12:03:51.004Z,23.80
2017-06-13T12:06:19.324Z,23.50
2017-06-13T12:08:47.693Z,23.40
2017-06-13T12:11:15.956Z,23.70
2017-06-13T12:13:44.265Z,23.80
2017-06-13T12:16:13.345Z,23.90
2017-06-13T12:18:42.385Z,23.70
2017-06-13T12:21:10.680Z,23.70
2017-06-13T12:23:38.981Z,23.50
2017-06-13T12:26:07.248Z,23.70
2017-06-13T12:28:35.561Z,24.00
2017-06-13T12:31:03.849Z,24.30
2017-06-13T12:33:32.132Z,24.40
2017-06-13T12:36:00.459Z,24.60
2017-06-13T12:38:29.568Z,24.90
2017-06-13T12:40:57.823Z,24.80
2017-06-13T12:43:26.144Z,24.90
2017-06-13T12:45:54.412Z,24.80
2017-06-13T12:48:22.680Z,24.70
2017-06-13T12:50:51.748Z,25.00
2017-06-13T12:53:20.025Z,25.00
2017-06-13T12:55:49.061Z,25.40
2017-06-13T12:58:17.365Z,25.30
2017-06-13T13:00:46.396Z,25.40
2017-06-13T13:03:14.668Z,25.40
2017-06-13T13:05:43.069Z,25.70
2017-06-13T13:08:11.334Z,25.90
2017-06-13T13:10:39.608Z,26.10
2017-06-13T13:13:07.995Z,26.20
2017-06-13T13:15:36.272Z,26.20
2017-06-13T13:18:04.539Z,26.30
2017-06-13T13:20:32.950Z,26.20
2017-06-13T13:23:01.980Z,26.10
2017-06-13T13:25:30.253Z,26.00
2017-06-13T13:27:58.568Z,26.00
2017-06-13T13:30:26.841Z,26.30
2017-06-13T13:32:55.105Z,26.30
2017-06-13T13:35:23.404Z,26.70
2017-06-13T13:37:52.464Z,26.50
2017-06-13T13:40:20.733Z,26.50
2017-06-13T13:42:49.036Z,26.50
2017-06-13T13:45:17.307Z,26.10
2017-06-13T13:47:45.592Z,26.00
2017-06-13T13:50:13.988Z,26.30
2017-06-13T13:52:42.280Z,26.30
2017-06-13T13:55:11.324Z,25.90
2017-06-13T13:57:39.744Z,25.90
2017-06-13T14:00:08.016Z,26.20
2017-06-13T14:02:36.296Z,26.60
2017-06-13T14:05:04.609Z,26.80
2017-06-13T14:07:33.648Z,26.70
2017-06-13T14:10:01.928Z,26.60
2017-06-13T14:12:30.252Z,26.50
2017-06-13T14:14:59.777Z,26.20
2017-06-13T14:17:28.044Z,26.50
2017-06-13T14:19:57.186Z,26.70
2017-06-13T14:22:26.268Z,26.70
2017-06-13T14:24:54.536Z,27.10
2017-06-13T14:27:23.044Z,27.00
2017-06-13T14:29:52.138Z,27.20
2017-06-13T14:32:20.425Z,27.10
2017-06-13T14:34:48.768Z,27.30
2017-06-13T14:37:17.152Z,27.10
2017-06-13T14:39:45.424Z,26.60
2017-06-13T14:42:13.763Z,26.30
2017-06-13T14:44:42.048Z,25.80
2017-06-13T14:47:10.314Z,25.80
2017-06-13T14:49:38.824Z,26.10
2017-06-13T14:52:07.872Z,26.40
2017-06-13T14:54:36.260Z,26.30
2017-06-13T14:57:05.349Z,26.10
2017-06-13T14:59:34.392Z,25.70
2017-06-13T15:02:03.697Z,25.60
2017-06-13T15:04:31.999Z,25.70
2017-06-13T15:07:00.386Z,25.70
2017-06-13T15:09:28.672Z,25.30
2017-06-13T15:11:57.355Z,25.30
2017-06-13T15:14:25.652Z,25.40
2017-06-13T15:16:53.948Z,25.40
2017-06-13T15:19:22.243Z,25.50
2017-06-13T15:21:50.524Z,25.20
2017-06-13T15:24:18.852Z,24.80
2017-06-13T15:26:47.407Z,24.40
2017-06-13T15:29:15.698Z,24.30
2017-06-13T15:31:44.043Z,24.10
2017-06-13T15:34:12.636Z,24.10
2017-06-13T15:36:41.707Z,24.40
2017-06-13T15:39:09.990Z,24.30
2017-06-13T15:41:38.319Z,24.20
2017-06-13T15:44:06.624Z,23.80
2017-06-13T15:46:34.900Z,24.00
2017-06-13T15:49:03.253Z,23.90
2017-06-13T15:51:31.590Z,24.00
2017-06-13T15:53:59.877Z,24.20
2017-06-13T15:56:28.207Z,24.20
2017-06-13T15:58:56.588Z,24.10
2017-06-13T16:01:25.723Z,23.80
2017-06-13T16:03:56.086Z,23.70
2017-06-13T16:06:25.111Z,24.10
2017-06-13T16:08:53.406Z,24.00
2017-06-13T16:11:21.705Z,24.10
2017-06-13T16:13:49.968Z,23.90
2017-06-13T16:16:18.277Z,23.90
2017-06-13T16:18:46.597Z,23.90
2017-06-13T16:21:14.877Z,23.60
2017-06-13T16:23:43.136Z,23.40
2017-06-13T16:26:11.556Z,23.30
2017-06-13T16:28:41.564Z,23.10
2017-06-13T16:31:10.608Z,22.90
2017-06-13T16:33:38.898Z,22.90
2017-06-13T16:36:07.168Z,22.80
2017-06-13T16:38:35.476Z,22.70
2017-06-13T16:41:03.740Z,22.60
2017-06-13T16:43:32.023Z,22.50
2017-06-13T16:46:00.385Z,22.50
2017-06-13T16:48:28.661Z,22.60
2017-06-13T16:50:57.710Z,22.70
2017-06-13T16:53:26.018Z,22.70
2017-06-13T16:55:54.284Z,22.70
2017-06-13T16:58:22.548Z,22.70
2017-06-13T17:00:50.860Z,22.60
2017-06-13T17:03:19.140Z,22.60
2017-06-13T17:05:48.173Z,22.50
2017-06-13T17:08:17.512Z,22.50
2017-06-13T17:10:46.547Z,22.50
2017-06-13T17:13:15.002Z,22.40
2017-06-13T17:15:44.293Z,22.50
2017-06-13T17:18:12.579Z,22.50
2017-06-13T17:20:40.988Z,22.40
2017-06-13T17:23:09.452Z,22.30
2017-06-13T17:25:37.720Z,22.20
2017-06-13T17:28:06.001Z,22.20
2017-06-13T17:30:34.313Z,22.20
2017-06-13T17:33:03.352Z,22.10
2017-06-13T17:35:31.620Z,22.10
2017-06-13T17:37:59.944Z,22.20
2017-06-13T17:40:28.232Z,22.20
2017-06-13T17:42:56.515Z,22.10
2017-06-13T17:45:24.812Z,21.90
2017-06-13T17:47:53.080Z,21.80
2017-06-13T17:50:21.351Z,21.70
2017-06-13T17:52:49.780Z,21.60
2017-06-13T17:55:18.821Z,21.60
2017-06-13T17:57:47.095Z,21.50
2017-06-13T18:00:15.421Z,21.50
2017-06-13T18:02:43.688Z,21.50
2017-06-13T18:05:11.960Z,21.50
2017-06-13T18:07:40.268Z,21.50
2017-06-13T18:10:09.008Z,21.50
2017-06-13T18:12:37.285Z,21.40
2017-06-13T18:15:05.776Z,21.40
2017-06-13T18:17:34.816Z,21.30
2017-06-13T18:20:03.219Z,21.20
2017-06-13T18:22:32.501Z,21.10
2017-06-13T18:25:01.532Z,21.10
2017-06-13T18:27:29.805Z,21.00
2017-06-13T18:29:58.103Z,21.00
2017-06-13T18:32:27.237Z,20.90
2017-06-13T18:34:55.504Z,20.90
2017-06-13T18:37:23.851Z,20.80
2017-06-13T18:39:52.141Z,20.70
2017-06-13T18:42:20.408Z,20.60
2017-06-13T18:44:48.740Z,20.60
2017-06-13T18:47:17.012Z,20.50
2017-06-13T18:49:45.288Z,20.50
2017-06-13T18:52:13.596Z,20.40
2017-06-13T18:54:41.863Z,20.40
2017-06-13T18:57:10.132Z,20.30
2017-06-13T18:59:38.436Z,20.30
2017-06-13T19:02:06.777Z,20.20
2017-06-13T19:04:35.032Z,20.20
2017-06-13T19:07:03.338Z,20.10
2017-06-13T19:09:32.368Z,19.90
2017-06-13T19:12:00.641Z,19.90
2017-06-13T19:14:28.955Z,20.00
2017-06-13T19:16:57.228Z,20.10
2017-06-13T19:19:25.523Z,20.00
2017-06-13T19:21:53.818Z,19.90
2017-06-13T19:24:22.090Z,19.80
2017-06-13T19:26:51.127Z,19.70
2017-06-13T19:29:20.460Z,19.60
2017-06-13T19:31:49.492Z,19.50
2017-06-13T19:34:17.760Z,19.40
2017-06-13T19:36:46.164Z,19.50
2017-06-13T19:39:15.200Z,19.40
2017-06-13T19:41:44.471Z,19.40
2017-06-13T19:44:12.785Z,19.40
2017-06-13T19:46:41.068Z,19.40
2017-06-13T19:49:09.340Z,19.40
2017-06-13T19:51:37.652Z,19.30
2017-06-13T19:54:05.932Z,19.30
2017-06-13T19:56:34.976Z,19.20
2017-06-13T19:59:03.373Z,19.10
2017-06-13T20:01:32.409Z,19.10
2017-06-13T20:04:00.684Z,19.00
2017-06-13T20:06:29.002Z,19.00
2017-06-13T20:08:57.276Z,18.90
2017-06-13T20:11:25.544Z,18.90
2017-06-13T20:13:53.848Z,18.80
2017-06-13T20:16:22.116Z,18.80
2017-06-13T20:18:51.152Z,18.90
2017-06-13T20:21:19.457Z,18.80
2017-06-13T20:24:04.272Z,18.70
2017-06-13T20:26:32.572Z,18.70
2017-06-13T20:29:07.308Z,18.50
2017-06-13T20:31:35.629Z,18.50
2017-06-13T20:34:03.900Z,18.50
2017-06-13T20:36:32.176Z,18.40
2017-06-13T20:39:00.488Z,18.40
2017-06-13T20:41:28.767Z,18.40
2017-06-13T20:43:57.049Z,18.30
2017-06-13T20:46:25.349Z,18.30
2017-06-13T20:48:53.622Z,18.20
2017-06-13T20:51:23.829Z,18.20
2017-06-13T20:53:52.143Z,18.10
2017-06-13T20:56:21.176Z,17.90
2017-06-13T20:58:49.467Z,17.90
2017-06-13T21:01:17.797Z,17.90
2017-06-13T21:03:46.061Z,17.90
2017-06-13T21:06:14.331Z,17.80
2017-06-13T21:08:42.635Z,17.80
2017-06-13T21:11:11.705Z,17.80
2017-06-13T21:13:39.956Z,17.70
2017-06-13T21:16:08.281Z,17.70
2017-06-13T21:18:36.556Z,17.60
2017-06-13T21:21:04.828Z,17.50
2017-06-13T21:23:34.472Z,17.40
2017-06-13T21:26:02.736Z,17.50
2017-06-13T21:28:31.007Z,17.40
2017-06-13T21:30:59.324Z,17.30
2017-06-13T21:33:28.476Z,17.30
2017-06-13T21:35:56.764Z,17.20
2017-06-13T21:38:25.073Z,17.20
2017-06-13T21:40:53.331Z,17.10
2017-06-13T21:43:23.265Z,17.10
2017-06-13T21:45:51.559Z,17.10
2017-06-13T21:48:20.667Z,17.00
2017-06-13T21:50:48.939Z,16.90
2017-06-13T21:53:17.256Z,16.90
2017-06-13T21:55:47.521Z,16.90
2017-06-13T21:58:15.813Z,16.90
2017-06-13T22:00:44.160Z,16.80
2017-06-13T22:03:12.440Z,16.70
2017-06-13T22:05:40.739Z,16.70
2017-06-13T22:08:09.037Z,16.60
2017-06-13T22:10:37.304Z,16.60
2017-06-13T22:13:05.576Z,16.60
2017-06-13T22:15:34.055Z,16.60
2017-06-13T22:18:02.357Z,16.50
2017-06-13T22:20:30.650Z,16.40
2017-06-13T22:22:58.967Z,16.40
2017-06-13T22:25:27.240Z,16.30
2017-06-13T22:27:55.503Z,16.30
2017-06-13T22:30:23.931Z,16.10
2017-06-13T22:32:52.964Z,16.00
2017-06-13T22:35:21.235Z,15.90
2017-06-13T22:37:49.544Z,16.00
2017-06-13T22:40:18.100Z,15.90
2017-06-13T22:42:46.384Z,15.80
2017-06-13T22:45:14.816Z,15.90
2017-06-13T22:47:43.244Z,15.90
2017-06-13T22:50:11.637Z,15.90
2017-06-13T22:52:40.029Z,15.90
2017-06-13T22:55:08.299Z,15.80
2017-06-13T22:57:36.899Z,15.70
2017-06-13T23:00:05.312Z,15.60
2017-06-13T23:02:34.352Z,15.30
2017-06-13T23:05:03.481Z,15.20
2017-06-13T23:07:32.005Z,15.10
2017-06-13T23:10:00.312Z,15.20
2017-06-13T23:12:29.389Z,15.00
2017-06-13T23:14:58.559Z,15.10
2017-06-13T23:17:26.847Z,15.00
2017-06-13T23:19:55.892Z,15.00
2017-06-13T23:22:24.508Z,14.90
2017-06-13T23:24:52.796Z,15.00
2017-06-13T23:27:21.063Z,14.90
2017-06-13T23:29:49.407Z,14.80
2017-06-13T23:32:17.688Z,14.70
2017-06-13T23:34:45.960Z,14.70
2017-06-13T23:37:14.259Z,14.60
2017-06-13T23:39:43.291Z,14.60
2017-06-13T23:42:11.568Z,14.50
2017-06-13T23:44:39.863Z,14.50
2017-06-13T23:47:08.135Z,14.40
2017-06-13T23:49:36.424Z,14.40
2017-06-13T23:52:04.730Z,14.30
2017-06-13T23:54:33.771Z,14.20
2017-06-13T23:57:02.040Z,14.20
2017-06-13T23:59:30.368Z,14.20
